Time;durP1;ratioP1;P1;durP2;ratioP2;P2;SDS_P1;SDS_P2;PMS_P1;PMS_P2;Temp;Humidity;BMP_temperature;BMP_pressure;BME280_temperature;BME280_humidity;BME280_pressure;Samples;Min_cycle;Max_cycle;Signal;HPM_P1;HPM_P2
2024/01/25 00:01:16;;;;;;;16.00;3.40;;;;;;;;;;5061767;28;20354;-74
2024/01/25 00:03:42;;;;;;;17.42;3.80;;;;;;;;;;5059166;28;20205;-74
2024/01/25 00:06:08;;;;;;;17.77;3.15;;;;;;;;;;5059168;28;20225;-74
2024/01/25 00:08:35;;;;;;;22.63;4.10;;;;;;;;;;5062242;28;20193;-74
2024/01/25 00:11:02;;;;;;;18.52;3.60;;;;;;;;;;5062841;28;20261;-74
2024/01/25 00:13:29;;;;;;;19.48;3.60;;;;;;;;;;5062884;28;20230;-75
2024/01/25 00:15:56;;;;;;;14.90;2.92;;;;;;;;;;5069272;28;20224;-75
2024/01/25 00:18:22;;;;;;;18.30;3.75;;;;;;;;;;5064525;28;20840;-74
2024/01/25 00:20:49;;;;;;;16.98;3.15;;;;;;;;;;5062849;28;20617;-74
2024/01/25 00:23:15;;;;;;;18.25;3.47;;;;;;;;;;5063560;28;20251;-74
2024/01/25 00:25:41;;;;;;;20.17;3.55;;;;;;;;;;5066331;28;20216;-74
2024/01/25 00:28:07;;;;;;;16.08;3.20;;;;;;;;;;5066206;28;20201;-74
2024/01/25 00:30:34;;;;;;;23.73;4.00;;;;;;;;;;5063026;28;20193;-74
2024/01/25 00:33:02;;;;;;;21.83;4.35;;;;;;;;;;5062669;28;20572;-74
2024/01/25 00:35:28;;;;;;;20.90;4.07;;;;;;;;;;5064512;28;20303;-75
2024/01/25 00:37:55;;;;;;;21.38;4.00;;;;;;;;;;5066167;28;20204;-74
2024/01/25 00:40:21;;;;;;;20.92;3.78;;;;;;;;;;5065000;28;20208;-74
2024/01/25 00:42:52;;;;;;;20.75;4.10;;;;;;;;;;5062460;28;20636;-74
2024/01/25 00:45:19;;;;;;;21.50;4.30;;;;;;;;;;5063208;28;20209;-74
2024/01/25 00:47:45;;;;;;;24.42;4.63;;;;;;;;;;5065896;28;20247;-75
2024/01/25 00:50:13;;;;;;;24.88;4.43;;;;;;;;;;5065818;28;20710;-74
2024/01/25 00:52:40;;;;;;;23.30;3.88;;;;;;;;;;5054469;28;20193;-74
2024/01/25 00:55:07;;;;;;;25.90;4.05;;;;;;;;;;5062374;28;20247;-74
2024/01/25 00:57:33;;;;;;;23.20;4.43;;;;;;;;;;5064973;28;20235;-74
2024/01/25 01:00:00;;;;;;;20.75;3.53;;;;;;;;;;5065694;28;20207;-74
2024/01/25 01:02:30;;;;;;;22.52;4.13;;;;;;;;;;5063767;28;20220;-74
2024/01/25 01:04:56;;;;;;;20.00;4.15;;;;;;;;;;5062284;28;20287;-74
2024/01/25 01:07:24;;;;;;;24.73;4.43;;;;;;;;;;5062935;28;20655;-75
2024/01/25 01:09:51;;;;;;;16.20;3.97;;;;;;;;;;5065524;28;20697;-74
2024/01/25 01:12:17;;;;;;;22.75;4.22;;;;;;;;;;5065047;28;20673;-74
2024/01/25 01:14:43;;;;;;;23.55;4.65;;;;;;;;;;5062326;28;20283;-74
2024/01/25 01:17:10;;;;;;;21.45;4.05;;;;;;;;;;5061855;28;20263;-74
2024/01/25 01:19:36;;;;;;;22.05;4.63;;;;;;;;;;5064545;28;20198;-74
2024/01/25 01:22:02;;;;;;;22.25;4.03;;;;;;;;;;5065148;28;20217;-74
2024/01/25 01:24:30;;;;;;;22.48;4.13;;;;;;;;;;5062662;28;20232;-74
2024/01/25 01:26:56;;;;;;;21.75;4.55;;;;;;;;;;5061972;28;20643;-74
2024/01/25 01:29:22;;;;;;;24.92;4.53;;;;;;;;;;5062164;28;20197;-74
2024/01/25 01:31:48;;;;;;;21.75;4.35;;;;;;;;;;5065152;28;20196;-74
2024/01/25 01:34:17;;;;;;;20.38;3.55;;;;;;;;;;5064972;28;20196;-74
2024/01/25 01:36:43;;;;;;;26.05;4.18;;;;;;;;;;5053281;28;20705;-74
2024/01/25 01:39:09;;;;;;;30.33;3.95;;;;;;;;;;5061464;28;20197;-74
2024/01/25 01:41:37;;;;;;;19.40;3.67;;;;;;;;;;5063705;28;20221;-74
2024/01/25 01:44:03;;;;;;;23.63;4.45;;;;;;;;;;5065117;28;20204;-74
2024/01/25 01:46:33;;;;;;;18.65;3.78;;;;;;;;;;5063161;28;20769;-74
2024/01/25 01:48:59;;;;;;;29.35;4.38;;;;;;;;;;5061382;28;20206;-74
2024/01/25 01:51:25;;;;;;;25.35;4.63;;;;;;;;;;5062128;28;20282;-74
2024/01/25 01:53:52;;;;;;;20.98;3.17;;;;;;;;;;5064718;28;20196;-73
2024/01/25 01:56:18;;;;;;;23.50;4.70;;;;;;;;;;5064659;28;20220;-73
2024/01/25 01:58:46;;;;;;;21.83;4.25;;;;;;;;;;5061032;28;20247;-73
2024/01/25 02:01:13;;;;;;;18.55;3.08;;;;;;;;;;5061259;28;20201;-73
2024/01/25 02:03:40;;;;;;;22.42;4.18;;;;;;;;;;5063514;28;20217;-73
2024/01/25 02:06:06;;;;;;;24.67;3.92;;;;;;;;;;5064387;28;20569;-73
2024/01/25 02:08:33;;;;;;;22.40;3.55;;;;;;;;;;5062567;28;20207;-73
2024/01/25 02:10:59;;;;;;;20.92;4.07;;;;;;;;;;5060922;28;20254;-74
2024/01/25 02:13:26;;;;;;;18.85;3.65;;;;;;;;;;5076223;22;20229;-71
2024/01/25 02:15:53;;;;;;;23.10;4.50;;;;;;;;;;5073099;28;20224;-70
2024/01/25 02:18:20;;;;;;;17.48;3.45;;;;;;;;;;5073262;28;20254;-70
2024/01/25 02:20:46;;;;;;;20.25;4.47;;;;;;;;;;5072885;28;20196;-70
2024/01/25 02:23:13;;;;;;;26.08;3.95;;;;;;;;;;5072678;28;20216;-70
2024/01/25 02:25:40;;;;;;;21.80;3.95;;;;;;;;;;5072423;28;20274;-70
2024/01/25 02:28:06;;;;;;;17.95;3.67;;;;;;;;;;5072305;28;20399;-70
2024/01/25 02:30:32;;;;;;;24.95;4.57;;;;;;;;;;5072223;28;20727;-70
2024/01/25 02:32:59;;;;;;;20.70;3.33;;;;;;;;;;5072295;28;20200;-70
2024/01/25 02:35:25;;;;;;;21.95;3.65;;;;;;;;;;5072711;28;20221;-70
2024/01/25 02:37:51;;;;;;;17.30;3.95;;;;;;;;;;5072898;28;20200;-70
2024/01/25 02:40:19;;;;;;;22.77;4.20;;;;;;;;;;5072415;28;20200;-70
2024/01/25 02:42:45;;;;;;;15.15;3.45;;;;;;;;;;5073098;28;20212;-70
2024/01/25 02:45:11;;;;;;;22.05;3.85;;;;;;;;;;5073110;28;20204;-70
2024/01/25 02:47:38;;;;;;;22.25;3.47;;;;;;;;;;5073805;28;20196;-70
2024/01/25 02:50:04;;;;;;;17.83;3.88;;;;;;;;;;5073606;28;20200;-70
2024/01/25 02:52:31;;;;;;;21.17;4.38;;;;;;;;;;5072667;28;20609;-70
2024/01/25 02:54:57;;;;;;;18.60;4.00;;;;;;;;;;5072060;28;20629;-70
2024/01/25 02:57:25;;;;;;;17.90;3.55;;;;;;;;;;5072446;28;20368;-70
2024/01/25 02:59:51;;;;;;;22.52;4.22;;;;;;;;;;5057221;28;20250;-69
2024/01/25 03:02:19;;;;;;;14.15;3.22;;;;;;;;;;5088934;28;20220;-69
2024/01/25 03:04:45;;;;;;;15.95;3.22;;;;;;;;;;5090697;28;20204;-69
2024/01/25 03:07:11;;;;;;;19.10;3.30;;;;;;;;;;5090805;28;20232;-69
2024/01/25 03:09:37;;;;;;;17.90;3.38;;;;;;;;;;5090240;28;20211;-69
2024/01/25 03:12:04;;;;;;;20.67;3.60;;;;;;;;;;5090049;28;20259;-69
2024/01/25 03:14:31;;;;;;;20.85;3.90;;;;;;;;;;5090534;28;20205;-69
2024/01/25 03:16:57;;;;;;;13.85;3.42;;;;;;;;;;5091177;28;20282;-70
2024/01/25 03:19:24;;;;;;;20.17;3.50;;;;;;;;;;5090477;28;20568;-70
2024/01/25 03:21:51;;;;;;;19.50;3.95;;;;;;;;;;5090315;28;20204;-70
2024/01/25 03:24:17;;;;;;;22.38;4.03;;;;;;;;;;5090653;28;20219;-70
2024/01/25 03:26:43;;;;;;;15.70;3.65;;;;;;;;;;5091070;28;20744;-70
2024/01/25 03:29:09;;;;;;;19.70;3.95;;;;;;;;;;5090446;28;20230;-70
2024/01/25 03:31:37;;;;;;;19.92;3.30;;;;;;;;;;5090339;28;20204;-70
2024/01/25 03:34:04;;;;;;;17.38;3.30;;;;;;;;;;5089713;28;20470;-70
2024/01/25 03:36:31;;;;;;;18.90;3.08;;;;;;;;;;5080329;28;20681;-71
2024/01/25 03:38:57;;;;;;;20.92;3.55;;;;;;;;;;5086259;28;20576;-70
2024/01/25 03:41:24;;;;;;;27.48;4.03;;;;;;;;;;5075195;28;20201;-70
2024/01/25 03:43:50;;;;;;;18.83;3.58;;;;;;;;;;5081105;28;20223;-70
2024/01/25 03:46:16;;;;;;;20.05;3.92;;;;;;;;;;5077074;28;20274;-69
2024/01/25 03:48:44;;;;;;;19.10;3.42;;;;;;;;;;5076091;28;20215;-69
2024/01/25 03:51:10;;;;;;;17.13;3.50;;;;;;;;;;5076257;28;20257;-69
2024/01/25 03:53:36;;;;;;;23.90;4.20;;;;;;;;;;5076328;28;20250;-69
2024/01/25 03:56:03;;;;;;;23.05;3.50;;;;;;;;;;5076019;28;20254;-69
2024/01/25 03:58:29;;;;;;;18.33;3.80;;;;;;;;;;5075951;28;20265;-70
2024/01/25 04:00:55;;;;;;;16.33;4.22;;;;;;;;;;5076269;28;20262;-70
2024/01/25 04:03:21;;;;;;;27.90;4.93;;;;;;;;;;5078101;28;20262;-70
2024/01/25 04:05:49;;;;;;;20.27;4.47;;;;;;;;;;5075201;28;20418;-70
2024/01/25 04:08:15;;;;;;;17.40;3.60;;;;;;;;;;5075587;28;20200;-70
2024/01/25 04:10:41;;;;;;;16.38;3.40;;;;;;;;;;5075834;28;20200;-70
2024/01/25 04:13:08;;;;;;;19.45;3.80;;;;;;;;;;5076218;28;20226;-69
2024/01/25 04:15:34;;;;;;;16.95;3.28;;;;;;;;;;5077118;28;20251;-69
2024/01/25 04:18:01;;;;;;;22.65;4.20;;;;;;;;;;5076338;28;20200;-69
2024/01/25 04:20:27;;;;;;;20.48;3.63;;;;;;;;;;5077066;28;20204;-70
2024/01/25 04:22:55;;;;;;;16.83;4.00;;;;;;;;;;5075241;28;20224;-70
2024/01/25 04:25:21;;;;;;;18.38;3.45;;;;;;;;;;5074866;28;20273;-69
2024/01/25 04:27:48;;;;;;;17.25;3.40;;;;;;;;;;5075686;28;20200;-69
2024/01/25 04:30:14;;;;;;;23.05;3.78;;;;;;;;;;5084300;28;20208;-70
2024/01/25 04:32:40;;;;;;;28.73;4.15;;;;;;;;;;5074838;28;20250;-70
2024/01/25 04:35:08;;;;;;;20.33;3.67;;;;;;;;;;5074490;28;20291;-70
2024/01/25 04:37:35;;;;;;;18.42;4.15;;;;;;;;;;5075000;28;20205;-70
2024/01/25 04:40:02;;;;;;;16.08;3.45;;;;;;;;;;5074511;28;20580;-70
2024/01/25 04:42:29;;;;;;;19.23;3.97;;;;;;;;;;5074656;28;20255;-70
2024/01/25 04:44:55;;;;;;;23.38;4.28;;;;;;;;;;5074518;28;20250;-70
2024/01/25 04:47:22;;;;;;;20.40;3.90;;;;;;;;;;5074633;28;20220;-70
2024/01/25 04:49:49;;;;;;;23.25;4.45;;;;;;;;;;5074459;28;20207;-70
2024/01/25 04:52:15;;;;;;;16.95;3.25;;;;;;;;;;5074647;28;20245;-70
2024/01/25 04:54:41;;;;;;;22.85;4.03;;;;;;;;;;5074562;28;20200;-70
2024/01/25 04:57:09;;;;;;;20.02;3.60;;;;;;;;;;5074592;28;20225;-70
2024/01/25 04:59:35;;;;;;;17.40;3.85;;;;;;;;;;5074097;28;20672;-70
2024/01/25 05:02:01;;;;;;;21.55;4.47;;;;;;;;;;5057510;28;20200;-70
2024/01/25 05:04:29;;;;;;;16.30;3.83;;;;;;;;;;5074037;28;20213;-70
2024/01/25 05:06:55;;;;;;;16.98;4.05;;;;;;;;;;5073654;28;20224;-70
2024/01/25 05:09:20;;;;;;;17.90;3.67;;;;;;;;;;5074684;28;20199;-71
2024/01/25 05:11:47;;;;;;;23.67;4.72;;;;;;;;;;5074552;28;20201;-70
2024/01/25 05:14:14;;;;;;;22.92;3.58;;;;;;;;;;5074232;28;20283;-71
2024/01/25 05:16:41;;;;;;;26.10;4.00;;;;;;;;;;5074255;28;20220;-70
2024/01/25 05:19:07;;;;;;;21.00;3.85;;;;;;;;;;5074742;28;20196;-70
2024/01/25 05:21:33;;;;;;;24.70;3.83;;;;;;;;;;5074543;28;20246;-70
2024/01/25 05:23:59;;;;;;;27.15;3.65;;;;;;;;;;5073946;28;20273;-70
2024/01/25 05:26:26;;;;;;;20.23;3.90;;;;;;;;;;5073992;28;20212;-70
2024/01/25 05:28:52;;;;;;;15.48;3.30;;;;;;;;;;5073577;28;20207;-70
2024/01/25 05:31:20;;;;;;;16.33;3.22;;;;;;;;;;5074250;28;20201;-70
2024/01/25 05:33:46;;;;;;;23.27;4.20;;;;;;;;;;5074142;28;20196;-70
2024/01/25 05:36:13;;;;;;;17.77;3.75;;;;;;;;;;5073824;28;20216;-70
2024/01/25 05:38:39;;;;;;;16.42;3.38;;;;;;;;;;5073509;28;20201;-70
2024/01/25 05:41:06;;;;;;;19.20;4.35;;;;;;;;;;5074148;28;20197;-71
2024/01/25 05:43:33;;;;;;;20.70;3.67;;;;;;;;;;5073454;28;20223;-70
2024/01/25 05:45:59;;;;;;;17.58;3.25;;;;;;;;;;5073331;28;20661;-70
2024/01/25 05:48:26;;;;;;;19.05;3.90;;;;;;;;;;5073438;28;20196;-70
2024/01/25 05:50:53;;;;;;;21.77;4.05;;;;;;;;;;5073606;28;20254;-70
2024/01/25 05:53:19;;;;;;;20.58;4.13;;;;;;;;;;5073189;28;20241;-70
2024/01/25 05:55:46;;;;;;;14.55;3.78;;;;;;;;;;5072980;28;20216;-70
2024/01/25 05:58:12;;;;;;;19.55;3.95;;;;;;;;;;5072822;28;20200;-70
2024/01/25 06:00:38;;;;;;;17.40;3.47;;;;;;;;;;5073569;28;20258;-70
2024/01/25 06:03:05;;;;;;;21.58;3.38;;;;;;;;;;5073155;28;20212;-70
2024/01/25 06:05:32;;;;;;;20.38;3.70;;;;;;;;;;5073068;28;20228;-70
2024/01/25 06:07:58;;;;;;;25.42;3.72;;;;;;;;;;5072704;28;20196;-70
2024/01/25 06:10:25;;;;;;;16.08;3.67;;;;;;;;;;5072365;28;20208;-70
2024/01/25 06:12:51;;;;;;;11.23;3.00;;;;;;;;;;5072340;28;20197;-70
2024/01/25 06:15:17;;;;;;;18.63;3.45;;;;;;;;;;5073737;28;20196;-71
2024/01/25 06:17:43;;;;;;;18.77;3.55;;;;;;;;;;5073286;28;20250;-71
2024/01/25 06:20:10;;;;;;;18.00;3.40;;;;;;;;;;5072775;28;20220;-70
2024/01/25 06:22:38;;;;;;;18.48;3.20;;;;;;;;;;5072583;28;20232;-72
2024/01/25 06:25:05;;;;;;;17.20;3.65;;;;;;;;;;5072560;28;20220;-69
2024/01/25 06:27:31;;;;;;;18.13;3.03;;;;;;;;;;5072785;28;20249;-70
2024/01/25 06:29:59;;;;;;;23.05;4.13;;;;;;;;;;5072159;28;20299;-69
2024/01/25 06:32:25;;;;;;;18.02;3.70;;;;;;;;;;5072743;28;20201;-69
2024/01/25 06:34:51;;;;;;;12.35;2.95;;;;;;;;;;5072429;28;20250;-70
2024/01/25 06:37:18;;;;;;;14.57;3.03;;;;;;;;;;5072378;28;20286;-70
2024/01/25 06:39:46;;;;;;;13.75;3.60;;;;;;;;;;5072195;28;20205;-70
2024/01/25 06:42:12;;;;;;;10.60;3.40;;;;;;;;;;5056151;28;20257;-60
2024/01/25 06:44:38;;;;;;;15.57;3.45;;;;;;;;;;5071931;28;20720;-60
2024/01/25 06:47:05;;;;;;;17.98;3.00;;;;;;;;;;5071834;28;20735;-60
2024/01/25 06:49:31;;;;;;;19.10;3.58;;;;;;;;;;5071996;28;20201;-60
2024/01/25 06:51:57;;;;;;;18.95;3.42;;;;;;;;;;5072284;28;20204;-60
2024/01/25 06:54:23;;;;;;;16.90;3.58;;;;;;;;;;5066530;28;20603;-64
2024/01/25 06:56:51;;;;;;;22.77;4.60;;;;;;;;;;5050778;28;20737;-64
2024/01/25 06:59:17;;;;;;;17.10;4.57;;;;;;;;;;5066031;28;20295;-64
2024/01/25 07:01:43;;;;;;;15.88;5.20;;;;;;;;;;5066230;28;20281;-64
2024/01/25 07:04:10;;;;;;;15.65;4.70;;;;;;;;;;5065699;28;20250;-64
2024/01/25 07:06:36;;;;;;;16.38;4.63;;;;;;;;;;5066220;28;20637;-64
2024/01/25 07:09:03;;;;;;;18.05;4.35;;;;;;;;;;5066021;28;20208;-62
2024/01/25 07:11:30;;;;;;;14.00;4.15;;;;;;;;;;5065691;28;20208;-62
2024/01/25 07:13:57;;;;;;;14.13;3.42;;;;;;;;;;5065700;28;20218;-63
2024/01/25 07:16:24;;;;;;;18.60;4.05;;;;;;;;;;5061598;28;20225;-64
2024/01/25 07:18:50;;;;;;;10.68;3.63;;;;;;;;;;5045428;28;20586;-63
2024/01/25 07:21:16;;;;;;;18.20;3.70;;;;;;;;;;5050108;28;20621;-63
2024/01/25 07:23:43;;;;;;;17.50;4.43;;;;;;;;;;5048155;28;20719;-63
2024/01/25 07:26:09;;;;;;;12.18;3.78;;;;;;;;;;5057450;28;20362;-64
2024/01/25 07:28:35;;;;;;;20.25;3.80;;;;;;;;;;5049492;28;20279;-64
2024/01/25 07:31:03;;;;;;;20.30;4.40;;;;;;;;;;5050663;28;20723;-63
2024/01/25 07:33:29;;;;;;;17.77;3.42;;;;;;;;;;5048721;28;20213;-63
2024/01/25 07:35:58;;;;;;;16.02;3.58;;;;;;;;;;5053875;28;20228;-62
2024/01/25 07:38:24;;;;;;;18.73;4.28;;;;;;;;;;5048468;28;20739;-61
2024/01/25 07:40:51;;;;;;;14.52;3.67;;;;;;;;;;5050363;28;20681;-62
2024/01/25 07:43:17;;;;;;;11.02;3.50;;;;;;;;;;5046519;28;20631;-60
2024/01/25 07:45:44;;;;;;;19.27;3.35;;;;;;;;;;5044811;28;20217;-61
2024/01/25 07:48:11;;;;;;;16.40;3.92;;;;;;;;;;5051715;28;20263;-61
2024/01/25 07:50:37;;;;;;;13.57;3.35;;;;;;;;;;5054149;28;20209;-61
2024/01/25 07:53:04;;;;;;;14.80;3.33;;;;;;;;;;5054782;28;20212;-61
2024/01/25 07:55:30;;;;;;;15.30;3.30;;;;;;;;;;5059694;28;20257;-61
2024/01/25 07:57:56;;;;;;;10.82;3.20;;;;;;;;;;5061238;28;20204;-61
2024/01/25 08:00:22;;;;;;;16.90;3.80;;;;;;;;;;5059067;28;20262;-61
2024/01/25 08:02:49;;;;;;;14.95;3.50;;;;;;;;;;5055686;28;20209;-61
2024/01/25 08:05:16;;;;;;;19.17;4.03;;;;;;;;;;5053639;28;20238;-61
2024/01/25 08:07:43;;;;;;;20.83;4.90;;;;;;;;;;5053772;28;20208;-61
2024/01/25 08:10:09;;;;;;;22.65;4.72;;;;;;;;;;5063921;28;20204;-61
2024/01/25 08:12:35;;;;;;;15.13;4.25;;;;;;;;;;5056277;28;20217;-61
2024/01/25 08:15:02;;;;;;;17.35;4.00;;;;;;;;;;5050654;28;20578;-60
2024/01/25 08:17:28;;;;;;;13.95;4.38;;;;;;;;;;5050420;28;20311;-61
2024/01/25 08:19:55;;;;;;;21.90;4.88;;;;;;;;;;5049634;28;20209;-61
2024/01/25 08:22:23;;;;;;;19.80;4.93;;;;;;;;;;5044606;28;20201;-61
2024/01/25 08:24:49;;;;;;;14.52;4.40;;;;;;;;;;5050778;28;20216;-61
2024/01/25 08:27:15;;;;;;;16.30;4.35;;;;;;;;;;5044597;28;20271;-61
2024/01/25 08:29:42;;;;;;;16.23;4.10;;;;;;;;;;5050260;28;20232;-60
2024/01/25 08:32:08;;;;;;;13.80;3.60;;;;;;;;;;5047468;28;20209;-61
2024/01/25 08:34:34;;;;;;;22.63;4.97;;;;;;;;;;5056031;28;20197;-61
2024/01/25 08:37:00;;;;;;;24.80;4.45;;;;;;;;;;5056033;28;20233;-61
2024/01/25 08:39:28;;;;;;;16.67;4.63;;;;;;;;;;5066056;28;20258;-61
2024/01/25 08:41:55;;;;;;;20.30;4.03;;;;;;;;;;5055280;28;20213;-63
2024/01/25 08:44:21;;;;;;;19.85;4.40;;;;;;;;;;5067574;28;20215;-63
2024/01/25 08:46:47;;;;;;;20.25;4.40;;;;;;;;;;5057034;28;20228;-63
2024/01/25 08:49:15;;;;;;;23.63;4.57;;;;;;;;;;5052638;28;20213;-64
2024/01/25 08:51:42;;;;;;;18.40;4.38;;;;;;;;;;5054188;28;20212;-64
2024/01/25 08:54:09;;;;;;;15.00;3.35;;;;;;;;;;5049612;28;20205;-64
2024/01/25 08:56:36;;;;;;;19.42;4.15;;;;;;;;;;5055701;28;20279;-63
2024/01/25 08:59:03;;;;;;;19.15;4.53;;;;;;;;;;5064832;28;20216;-63
2024/01/25 09:01:29;;;;;;;18.27;4.60;;;;;;;;;;5058609;28;20208;-64
2024/01/25 09:03:57;;;;;;;24.75;4.18;;;;;;;;;;5058068;28;20630;-64
2024/01/25 09:06:23;;;;;;;18.60;4.10;;;;;;;;;;5063627;28;20270;-64
2024/01/25 09:08:49;;;;;;;25.55;4.45;;;;;;;;;;5060523;28;20212;-63
2024/01/25 09:11:16;;;;;;;20.48;4.72;;;;;;;;;;5067391;28;20208;-63
2024/01/25 09:13:45;;;;;;;21.48;4.57;;;;;;;;;;5059697;28;20295;-63
2024/01/25 09:16:11;;;;;;;19.30;3.97;;;;;;;;;;5064794;28;20289;-64
2024/01/25 09:18:37;;;;;;;16.30;4.00;;;;;;;;;;5053528;28;20209;-62
2024/01/25 09:21:03;;;;;;;24.48;4.78;;;;;;;;;;5059810;28;20258;-61
2024/01/25 09:23:30;;;;;;;17.00;4.22;;;;;;;;;;5059272;28;20921;-63
2024/01/25 09:25:56;;;;;;;19.00;3.97;;;;;;;;;;5058010;28;20700;-63
2024/01/25 09:28:22;;;;;;;23.98;4.40;;;;;;;;;;5057500;28;20231;-63
2024/01/25 09:30:50;;;;;;;15.70;3.97;;;;;;;;;;5060415;28;20255;-62
2024/01/25 09:33:16;;;;;;;17.05;3.65;;;;;;;;;;5059970;28;20205;-63
2024/01/25 09:35:46;;;;;;;14.00;3.08;;;;;;;;;;5059050;28;20213;-64
2024/01/25 09:38:12;;;;;;;16.58;3.20;;;;;;;;;;5052772;28;20661;-62
2024/01/25 09:40:39;;;;;;;16.65;3.70;;;;;;;;;;5062771;28;20258;-64
2024/01/25 09:43:05;;;;;;;14.23;3.60;;;;;;;;;;5059201;28;20361;-64
2024/01/25 09:45:32;;;;;;;15.82;3.72;;;;;;;;;;5065662;28;20266;-63
2024/01/25 09:47:59;;;;;;;17.55;4.10;;;;;;;;;;5056016;28;20471;-63
2024/01/25 09:50:26;;;;;;;19.58;4.25;;;;;;;;;;5061971;28;20258;-64
2024/01/25 09:52:55;;;;;;;21.83;4.63;;;;;;;;;;5057576;28;20219;-63
2024/01/25 09:55:22;;;;;;;13.25;3.58;;;;;;;;;;5062072;28;20661;-62
2024/01/25 09:57:49;;;;;;;18.85;3.78;;;;;;;;;;5062143;28;20677;-63
2024/01/25 10:00:16;;;;;;;19.33;3.65;;;;;;;;;;5049553;28;20612;-64
2024/01/25 10:02:42;;;;;;;16.15;3.88;;;;;;;;;;5059545;28;20681;-63
2024/01/25 10:05:10;;;;;;;17.88;3.90;;;;;;;;;;5052880;28;20229;-63
2024/01/25 10:07:37;;;;;;;24.92;4.57;;;;;;;;;;5050516;28;20557;-63
2024/01/25 10:10:05;;;;;;;23.95;4.40;;;;;;;;;;5053161;28;20205;-62
2024/01/25 10:12:31;;;;;;;20.58;3.42;;;;;;;;;;5037401;28;20292;-63
2024/01/25 10:14:57;;;;;;;21.13;3.97;;;;;;;;;;5060164;28;20211;-61
2024/01/25 10:17:23;;;;;;;20.58;3.85;;;;;;;;;;5054285;28;20233;-60
2024/01/25 10:19:50;;;;;;;16.95;3.75;;;;;;;;;;5051566;28;20216;-62
2024/01/25 10:22:17;;;;;;;14.15;3.53;;;;;;;;;;5062812;28;20626;-60
2024/01/25 10:24:44;;;;;;;16.10;3.42;;;;;;;;;;5061125;28;20229;-60
2024/01/25 10:27:11;;;;;;;18.75;4.15;;;;;;;;;;5065729;28;20228;-62
2024/01/25 10:29:37;;;;;;;20.85;4.00;;;;;;;;;;5063603;28;20208;-63
2024/01/25 10:32:04;;;;;;;13.70;3.50;;;;;;;;;;5046601;28;20213;-63
2024/01/25 10:34:31;;;;;;;16.38;3.67;;;;;;;;;;5050836;28;20641;-62
2024/01/25 10:36:57;;;;;;;21.92;4.10;;;;;;;;;;5057883;28;20716;-64
2024/01/25 10:39:25;;;;;;;14.30;3.17;;;;;;;;;;5056325;28;20243;-63
2024/01/25 10:41:52;;;;;;;17.65;3.70;;;;;;;;;;5059286;28;20283;-63
2024/01/25 10:44:19;;;;;;;14.48;3.08;;;;;;;;;;5055335;28;20731;-63
2024/01/25 10:46:47;;;;;;;20.73;3.30;;;;;;;;;;5055605;28;20308;-60
2024/01/25 10:49:13;;;;;;;22.08;3.75;;;;;;;;;;5057807;28;20580;-65
2024/01/25 10:51:40;;;;;;;18.10;3.17;;;;;;;;;;5057836;28;20635;-66
2024/01/25 10:54:08;;;;;;;23.25;3.45;;;;;;;;;;5049580;28;20209;-63
2024/01/25 10:56:36;;;;;;;17.92;3.28;;;;;;;;;;5064941;28;20954;-62
2024/01/25 10:59:03;;;;;;;12.73;3.17;;;;;;;;;;5058684;28;20208;-62
2024/01/25 11:01:29;;;;;;;20.48;3.90;;;;;;;;;;5053523;28;20220;-63
2024/01/25 11:03:56;;;;;;;20.90;3.25;;;;;;;;;;5054299;28;20632;-60
2024/01/25 11:06:22;;;;;;;17.40;3.70;;;;;;;;;;5057026;28;20225;-63
2024/01/25 11:08:49;;;;;;;17.83;3.42;;;;;;;;;;5051154;28;20204;-63
2024/01/25 11:11:16;;;;;;;18.58;3.63;;;;;;;;;;5064981;28;20273;-62
2024/01/25 11:13:43;;;;;;;18.90;3.33;;;;;;;;;;5048243;28;20597;-64
2024/01/25 11:16:14;;;;;;;13.75;2.70;;;;;;;;;;5057241;28;20306;-65
2024/01/25 11:18:48;;;;;;;18.67;4.10;;;;;;;;;;5044727;28;20330;-63
2024/01/25 11:21:22;;;;;;;14.55;3.17;;;;;;;;;;5053320;28;20209;-62
2024/01/25 11:23:48;;;;;;;18.55;3.35;;;;;;;;;;5047206;28;20216;-63
2024/01/25 11:26:16;;;;;;;16.35;3.08;;;;;;;;;;5055117;28;20315;-63
2024/01/25 11:28:44;;;;;;;17.35;3.33;;;;;;;;;;5053667;28;20219;-62
2024/01/25 11:31:11;;;;;;;19.48;3.97;;;;;;;;;;5064984;28;20212;-62
2024/01/25 11:33:37;;;;;;;13.13;2.90;;;;;;;;;;5057528;28;20263;-64
2024/01/25 11:36:03;;;;;;;16.35;3.42;;;;;;;;;;5055270;28;20282;-63
2024/01/25 11:38:30;;;;;;;21.40;3.83;;;;;;;;;;5063484;28;20309;-64
2024/01/25 11:40:57;;;;;;;18.00;3.88;;;;;;;;;;5065005;28;20255;-62
2024/01/25 11:43:24;;;;;;;15.93;3.63;;;;;;;;;;5058854;28;20208;-61
2024/01/25 11:45:51;;;;;;;16.98;3.75;;;;;;;;;;5047024;28;20285;-65
2024/01/25 11:48:19;;;;;;;17.85;3.58;;;;;;;;;;5048725;28;20808;-61
2024/01/25 11:50:45;;;;;;;10.45;3.60;;;;;;;;;;5059016;28;20235;-63
2024/01/25 11:53:11;;;;;;;17.13;3.30;;;;;;;;;;5053674;28;20216;-63
2024/01/25 11:55:37;;;;;;;18.88;3.65;;;;;;;;;;5046901;28;20269;-63
2024/01/25 11:58:04;;;;;;;16.33;3.67;;;;;;;;;;5051781;28;20217;-63
2024/01/25 12:00:30;;;;;;;15.93;3.45;;;;;;;;;;5059147;28;20645;-63
2024/01/25 12:02:58;;;;;;;9.70;3.25;;;;;;;;;;5055763;28;20212;-62
2024/01/25 12:05:24;;;;;;;15.15;2.95;;;;;;;;;;5063968;28;20224;-62
2024/01/25 12:07:51;;;;;;;10.85;2.97;;;;;;;;;;5047860;28;20201;-62
2024/01/25 12:10:17;;;;;;;14.10;3.17;;;;;;;;;;5050714;28;20215;-63
2024/01/25 12:12:44;;;;;;;10.55;3.00;;;;;;;;;;5061743;28;20201;-62
2024/01/25 12:15:10;;;;;;;12.98;2.90;;;;;;;;;;5068178;28;20204;-62
2024/01/25 12:17:38;;;;;;;10.45;3.03;;;;;;;;;;5051905;28;20267;-62
2024/01/25 12:20:10;;;;;;;9.98;2.60;;;;;;;;;;5056614;28;20274;-62
2024/01/25 12:22:36;;;;;;;16.90;3.38;;;;;;;;;;5051000;28;20213;-63
2024/01/25 12:25:03;;;;;;;15.38;3.22;;;;;;;;;;5055370;28;20220;-63
2024/01/25 12:27:30;;;;;;;11.73;3.00;;;;;;;;;;5060937;28;20242;-61
2024/01/25 12:29:57;;;;;;;14.18;3.22;;;;;;;;;;5056840;28;20228;-62
2024/01/25 12:32:23;;;;;;;13.63;3.58;;;;;;;;;;5051975;28;20216;-64
2024/01/25 12:34:55;;;;;;;10.57;3.30;;;;;;;;;;5056702;28;20742;-63
2024/01/25 12:37:23;;;;;;;15.27;3.25;;;;;;;;;;5052753;28;20220;-62
2024/01/25 12:39:50;;;;;;;18.00;3.30;;;;;;;;;;5059941;28;20719;-62
2024/01/25 12:42:16;;;;;;;17.67;3.35;;;;;;;;;;5055615;28;20266;-62
2024/01/25 12:44:42;;;;;;;14.13;3.53;;;;;;;;;;5066331;28;20205;-63
2024/01/25 12:47:08;;;;;;;14.35;3.38;;;;;;;;;;5053940;28;20235;-62
2024/01/25 12:49:35;;;;;;;17.00;3.17;;;;;;;;;;5060354;28;20257;-65
2024/01/25 12:52:01;;;;;;;13.27;3.47;;;;;;;;;;5058203;28;20220;-62
2024/01/25 12:54:29;;;;;;;13.55;3.10;;;;;;;;;;5055409;28;20236;-62
2024/01/25 12:56:55;;;;;;;12.55;2.78;;;;;;;;;;5061657;28;20228;-63
2024/01/25 12:59:22;;;;;;;12.77;3.45;;;;;;;;;;5066760;28;20236;-65
2024/01/25 13:01:48;;;;;;;11.35;3.03;;;;;;;;;;5053294;28;20232;-63
2024/01/25 13:04:14;;;;;;;12.45;2.60;;;;;;;;;;5060550;28;20624;-63
2024/01/25 13:06:40;;;;;;;11.02;2.70;;;;;;;;;;5061501;28;20734;-64
2024/01/25 13:09:07;;;;;;;16.38;3.17;;;;;;;;;;5065495;28;20208;-65
2024/01/25 13:11:35;;;;;;;10.73;2.28;;;;;;;;;;5068541;28;20269;-64
2024/01/25 13:14:01;;;;;;;13.43;2.88;;;;;;;;;;5050187;28;20382;-63
2024/01/25 13:16:27;;;;;;;14.55;3.05;;;;;;;;;;5062140;28;20225;-63
2024/01/25 13:18:54;;;;;;;15.45;2.83;;;;;;;;;;5065920;28;20266;-63
2024/01/25 13:21:20;;;;;;;8.55;2.80;;;;;;;;;;5054402;28;20217;-62
2024/01/25 13:23:46;;;;;;;12.48;2.65;;;;;;;;;;5058478;28;20270;-62
2024/01/25 13:26:12;;;;;;;11.38;2.78;;;;;;;;;;5056886;28;20274;-60
2024/01/25 13:28:40;;;;;;;10.75;2.72;;;;;;;;;;5067008;28;20239;-61
2024/01/25 13:31:06;;;;;;;14.00;3.03;;;;;;;;;;5057010;28;20263;-62
2024/01/25 13:33:32;;;;;;;9.23;2.83;;;;;;;;;;5060733;28;20261;-60
2024/01/25 13:35:59;;;;;;;11.15;2.92;;;;;;;;;;5064398;28;20259;-62
2024/01/25 13:38:25;;;;;;;10.45;2.67;;;;;;;;;;5061573;28;20204;-61
2024/01/25 13:40:51;;;;;;;9.65;2.60;;;;;;;;;;5067938;28;20311;-61
2024/01/25 13:43:17;;;;;;;11.52;2.75;;;;;;;;;;5060703;28;20220;-59
2024/01/25 13:45:45;;;;;;;9.63;2.28;;;;;;;;;;5067605;28;20572;-63
2024/01/25 13:48:11;;;;;;;10.40;2.92;;;;;;;;;;5062764;28;20212;-62
2024/01/25 13:50:37;;;;;;;8.73;2.80;;;;;;;;;;5050167;28;20205;-62
2024/01/25 13:53:04;;;;;;;10.20;2.67;;;;;;;;;;5047977;28;20217;-63
2024/01/25 13:55:30;;;;;;;15.05;3.67;;;;;;;;;;5059832;28;20274;-62
2024/01/25 13:57:56;;;;;;;13.93;3.30;;;;;;;;;;5059978;28;20209;-60
2024/01/25 14:00:23;;;;;;;10.27;2.75;;;;;;;;;;5058548;28;20204;-63
2024/01/25 14:02:50;;;;;;;16.85;3.03;;;;;;;;;;5058291;28;20713;-62
2024/01/25 14:05:16;;;;;;;11.00;2.55;;;;;;;;;;5062208;28;20713;-62
2024/01/25 14:07:43;;;;;;;11.48;2.78;;;;;;;;;;5053743;28;20621;-62
2024/01/25 14:10:09;;;;;;;12.00;2.80;;;;;;;;;;5059883;28;20208;-60
2024/01/25 14:12:35;;;;;;;16.77;8.45;;;;;;;;;;5056843;28;20258;-63
2024/01/25 14:15:02;;;;;;;11.95;3.58;;;;;;;;;;5060044;28;20266;-62
2024/01/25 14:17:28;;;;;;;15.32;3.10;;;;;;;;;;5053445;28;20201;-62
2024/01/25 14:19:56;;;;;;;15.45;2.78;;;;;;;;;;5055021;28;20210;-64
2024/01/25 14:22:22;;;;;;;11.93;2.42;;;;;;;;;;5054193;28;20212;-64
2024/01/25 14:24:48;;;;;;;13.55;2.72;;;;;;;;;;5050710;28;20212;-62
2024/01/25 14:27:15;;;;;;;11.23;3.22;;;;;;;;;;5056413;28;20229;-62